createdAt,value
2022-07-25T00:01:00.641Z,6.78
2022-07-25T00:03:28.553Z,7.25
2022-07-25T00:05:55.969Z,5.45
2022-07-25T00:08:23.104Z,6.55
2022-07-25T00:10:50.193Z,4.07
2022-07-25T00:13:17.753Z,5.47
2022-07-25T00:15:45.235Z,7.20
2022-07-25T00:18:12.291Z,5.35
2022-07-25T00:20:39.552Z,6.78
2022-07-25T00:23:06.589Z,5.90
2022-07-25T00:25:33.682Z,4.13
2022-07-25T00:28:00.950Z,5.88
2022-07-25T00:30:28.007Z,7.13
2022-07-25T00:32:55.075Z,10.00
2022-07-25T00:35:22.385Z,4.93
2022-07-25T00:37:49.453Z,4.53
2022-07-25T00:40:16.583Z,4.28
2022-07-25T00:42:43.931Z,5.93
2022-07-25T00:45:11.198Z,5.82
2022-07-25T00:47:38.304Z,3.65
2022-07-25T00:50:06.000Z,3.03
2022-07-25T00:52:34.801Z,4.77
2022-07-25T00:55:01.830Z,6.00
2022-07-25T00:57:29.234Z,4.30
2022-07-25T00:59:56.245Z,5.65
2022-07-25T01:02:23.653Z,5.18
2022-07-25T01:04:50.905Z,4.38
2022-07-25T01:07:17.964Z,4.50
2022-07-25T01:09:45.478Z,5.30
2022-07-25T01:12:12.956Z,6.05
2022-07-25T01:14:43.212Z,4.55
2022-07-25T01:17:10.685Z,5.45
2022-07-25T01:19:38.056Z,5.15
2022-07-25T01:22:05.149Z,5.35
2022-07-25T01:24:32.444Z,5.65
2022-07-25T01:26:59.852Z,5.45
2022-07-25T01:29:26.982Z,5.80
2022-07-25T01:31:54.041Z,4.28
2022-07-25T01:34:21.403Z,6.32
2022-07-25T01:36:48.455Z,5.68
2022-07-25T01:39:15.509Z,4.88
2022-07-25T01:41:42.923Z,5.28
2022-07-25T01:44:10.578Z,5.70
2022-07-25T01:46:37.764Z,6.18
2022-07-25T01:49:05.338Z,5.45
2022-07-25T01:51:32.420Z,5.45
2022-07-25T01:53:59.700Z,6.72
2022-07-25T01:56:27.139Z,4.93
2022-07-25T01:58:57.437Z,4.90
2022-07-25T02:01:24.706Z,6.28
2022-07-25T02:03:52.035Z,4.97
2022-07-25T02:06:19.662Z,7.60
2022-07-25T02:08:46.744Z,5.65
2022-07-25T02:11:14.583Z,3.67
2022-07-25T02:13:41.670Z,4.75
2022-07-25T02:16:08.741Z,5.00
2022-07-25T02:18:36.091Z,5.53
2022-07-25T02:21:07.181Z,5.97
2022-07-25T02:23:42.581Z,8.60
2022-07-25T02:26:09.658Z,6.68
2022-07-25T02:28:36.774Z,6.22
2022-07-25T02:31:04.082Z,4.53
2022-07-25T02:33:31.139Z,4.65
2022-07-25T02:35:58.224Z,9.07
2022-07-25T02:38:26.530Z,10.23
2022-07-25T02:40:53.746Z,5.30
2022-07-25T02:43:20.841Z,6.50
2022-07-25T02:45:48.144Z,9.98
2022-07-25T02:48:15.554Z,5.05
2022-07-25T02:50:42.702Z,7.65
2022-07-25T02:53:09.994Z,6.55
2022-07-25T02:55:37.172Z,6.43
2022-07-25T02:58:04.234Z,7.68
2022-07-25T03:00:32.028Z,6.45
2022-07-25T03:02:59.082Z,8.95
2022-07-25T03:05:26.413Z,5.50
2022-07-25T03:07:53.944Z,6.13
2022-07-25T03:10:21.678Z,6.70
2022-07-25T03:12:48.798Z,8.27
2022-07-25T03:15:16.237Z,5.47
2022-07-25T03:17:45.198Z,6.35
2022-07-25T03:20:12.459Z,7.50
2022-07-25T03:22:39.840Z,10.85
2022-07-25T03:25:15.830Z,8.93
2022-07-25T03:27:48.979Z,8.85
2022-07-25T03:30:16.139Z,7.57
2022-07-25T03:32:45.871Z,9.48
2022-07-25T03:35:13.613Z,7.00
2022-07-25T03:37:40.675Z,8.73
2022-07-25T03:40:08.261Z,8.38
2022-07-25T03:42:35.792Z,7.00
2022-07-25T03:45:02.940Z,10.30
2022-07-25T03:47:29.978Z,8.55
2022-07-25T03:49:57.336Z,6.07
2022-07-25T03:52:24.342Z,9.70
2022-07-25T03:54:51.380Z,7.20
2022-07-25T03:57:19.158Z,11.25
2022-07-25T03:59:46.210Z,10.65
2022-07-25T04:02:13.769Z,7.78
2022-07-25T04:04:41.145Z,9.32
2022-07-25T04:07:08.164Z,7.15
2022-07-25T04:09:35.382Z,6.40
2022-07-25T04:12:02.585Z,10.25
2022-07-25T04:14:29.762Z,9.98
2022-07-25T04:16:56.875Z,8.27
2022-07-25T04:19:24.253Z,6.15
2022-07-25T04:21:53.253Z,7.57
2022-07-25T04:24:20.370Z,10.15
2022-07-25T04:26:47.642Z,6.28
2022-07-25T04:29:15.057Z,9.60
2022-07-25T04:31:42.118Z,7.07
2022-07-25T04:34:09.872Z,10.07
2022-07-25T04:36:37.042Z,8.32
2022-07-25T04:39:04.157Z,9.88
2022-07-25T04:41:31.548Z,8.38
2022-07-25T04:43:58.832Z,10.10
2022-07-25T04:46:25.858Z,5.50
2022-07-25T04:48:53.300Z,6.75
2022-07-25T04:51:20.422Z,6.63
2022-07-25T04:53:47.512Z,8.23
2022-07-25T04:56:18.044Z,10.02
2022-07-25T04:58:45.530Z,7.53
2022-07-25T05:01:12.665Z,7.10
2022-07-25T05:03:40.094Z,10.15
2022-07-25T05:06:10.213Z,10.57
2022-07-25T05:11:04.446Z,7.25
2022-07-25T05:13:31.523Z,7.75
2022-07-25T05:15:58.590Z,6.60
2022-07-25T05:18:26.084Z,9.63
2022-07-25T05:20:53.123Z,8.07
2022-07-25T05:23:20.205Z,10.18
2022-07-25T05:25:47.578Z,8.85
2022-07-25T05:28:15.120Z,8.73
2022-07-25T05:30:42.212Z,9.75
2022-07-25T05:33:09.557Z,9.57
2022-07-25T05:35:36.638Z,8.63
2022-07-25T05:38:04.727Z,5.65
2022-07-25T05:40:31.978Z,6.68
2022-07-25T05:43:02.958Z,7.82
2022-07-25T05:45:30.766Z,5.72
2022-07-25T05:47:58.170Z,8.40
2022-07-25T05:50:25.320Z,5.00
2022-07-25T05:52:52.390Z,6.97
2022-07-25T05:55:19.741Z,9.80
2022-07-25T05:57:46.854Z,8.77
2022-07-25T06:00:14.803Z,7.95
2022-07-25T06:02:42.314Z,11.68
2022-07-25T06:05:09.573Z,5.40
2022-07-25T06:07:36.930Z,5.43
2022-07-25T06:10:04.931Z,7.90
2022-07-25T06:12:33.740Z,9.90
2022-07-25T06:15:04.887Z,5.82
2022-07-25T06:17:32.931Z,8.27
2022-07-25T06:20:00.443Z,4.85
2022-07-25T06:22:27.567Z,7.10
2022-07-25T06:24:54.828Z,6.55
2022-07-25T06:27:26.091Z,5.30
2022-07-25T06:29:56.563Z,4.95
2022-07-25T06:32:23.679Z,4.22
2022-07-25T06:34:51.252Z,3.78
2022-07-25T06:37:18.550Z,5.75
2022-07-25T06:39:46.208Z,4.32
2022-07-25T06:42:17.427Z,4.15
2022-07-25T06:44:45.070Z,6.25
2022-07-25T06:47:15.256Z,4.03
2022-07-25T06:49:42.508Z,6.20
2022-07-25T06:52:10.152Z,5.40
2022-07-25T06:54:37.327Z,5.55
2022-07-25T06:57:04.543Z,5.95
2022-07-25T06:59:31.980Z,5.32
2022-07-25T07:01:59.281Z,7.72
2022-07-25T07:04:26.308Z,7.07
2022-07-25T07:06:53.636Z,5.50
2022-07-25T07:09:20.635Z,5.38
2022-07-25T07:11:47.835Z,6.70
2022-07-25T07:14:18.256Z,5.72
2022-07-25T07:16:45.526Z,5.75
2022-07-25T07:19:14.813Z,5.82
2022-07-25T07:21:42.960Z,5.75
2022-07-25T07:24:23.839Z,4.57
2022-07-25T07:26:52.484Z,5.97
2022-07-25T07:29:19.597Z,6.70
2022-07-25T07:31:46.782Z,7.03
2022-07-25T07:34:16.409Z,6.82
2022-07-25T07:36:44.117Z,5.30
2022-07-25T07:39:11.506Z,3.88
2022-07-25T07:41:39.073Z,5.00
2022-07-25T07:44:06.168Z,3.47
2022-07-25T07:46:33.382Z,7.93
2022-07-25T07:49:00.759Z,5.85
2022-07-25T07:51:27.825Z,3.97
2022-07-25T07:54:13.681Z,6.28
2022-07-25T07:56:42.039Z,5.65
2022-07-25T07:59:09.552Z,4.93
2022-07-25T08:01:37.112Z,4.47
2022-07-25T08:04:04.667Z,5.93
2022-07-25T08:06:31.766Z,6.53
2022-07-25T08:09:01.441Z,7.68
2022-07-25T08:11:28.833Z,4.70
2022-07-25T08:13:55.997Z,4.03
2022-07-25T08:16:23.526Z,6.28
2022-07-25T08:18:50.791Z,4.22
2022-07-25T08:21:17.854Z,4.43
2022-07-25T08:23:47.404Z,2.72
2022-07-25T08:26:15.152Z,3.53
2022-07-25T08:28:42.394Z,3.38
2022-07-25T08:31:10.544Z,4.10
2022-07-25T08:33:38.088Z,8.27
2022-07-25T08:36:05.421Z,3.00
2022-07-25T08:38:32.581Z,4.53
2022-07-25T08:41:00.125Z,4.13
2022-07-25T08:43:27.357Z,4.15
2022-07-25T08:45:55.479Z,4.45
2022-07-25T08:48:24.179Z,3.53
2022-07-25T08:50:51.769Z,4.20
2022-07-25T08:53:35.702Z,3.80
2022-07-25T08:56:13.302Z,5.63
2022-07-25T08:58:43.922Z,4.75
2022-07-25T09:01:12.795Z,3.97
2022-07-25T09:03:43.998Z,4.50
2022-07-25T09:06:24.286Z,5.60
2022-07-25T09:08:53.252Z,4.95
2022-07-25T09:11:46.851Z,4.63
2022-07-25T09:14:15.259Z,6.80
2022-07-25T09:16:44.409Z,4.63
2022-07-25T09:19:23.217Z,4.65
2022-07-25T09:22:10.775Z,6.63
2022-07-25T09:24:44.834Z,4.90
2022-07-25T09:27:13.104Z,4.78
2022-07-25T09:29:42.787Z,3.85
2022-07-25T09:32:21.063Z,4.15
2022-07-25T09:34:49.296Z,3.55
2022-07-25T09:37:19.601Z,2.70
2022-07-25T09:39:48.500Z,7.57
2022-07-25T09:42:25.696Z,4.95
2022-07-25T09:45:11.818Z,5.45
2022-07-25T09:47:51.351Z,4.28
2022-07-25T09:50:18.948Z,4.10
2022-07-25T09:52:46.111Z,3.65
2022-07-25T09:55:15.007Z,3.25
2022-07-25T09:57:43.705Z,3.10
2022-07-25T10:00:14.948Z,5.47
2022-07-25T10:02:53.407Z,2.67
2022-07-25T10:05:58.113Z,2.72
2022-07-25T10:08:25.886Z,3.55
2022-07-25T10:10:53.432Z,3.97
2022-07-25T10:13:34.992Z,4.63
2022-07-25T10:16:02.486Z,7.47
2022-07-25T10:18:30.661Z,4.63
2022-07-25T10:21:25.022Z,3.58
2022-07-25T10:24:08.130Z,4.97
2022-07-25T10:26:36.745Z,3.53
2022-07-25T10:29:08.340Z,4.35
2022-07-25T10:31:37.143Z,2.63
2022-07-25T10:34:06.550Z,2.70
2022-07-25T10:36:56.169Z,3.92
2022-07-25T10:39:24.341Z,5.15
2022-07-25T10:41:56.931Z,4.10
2022-07-25T10:44:24.286Z,2.47
2022-07-25T10:46:52.423Z,2.47
2022-07-25T10:49:31.755Z,3.63
2022-07-25T10:54:32.027Z,3.35
2022-07-25T10:56:59.567Z,3.08
2022-07-25T10:59:47.732Z,2.97
2022-07-25T11:02:17.942Z,3.53
2022-07-25T11:04:46.465Z,3.60
2022-07-25T11:07:15.119Z,2.67
2022-07-25T11:09:42.885Z,2.88
2022-07-25T11:12:10.222Z,3.90
2022-07-25T11:14:41.684Z,3.17
2022-07-25T11:17:23.169Z,3.38
2022-07-25T11:20:01.898Z,3.53
2022-07-25T11:22:29.777Z,3.40
2022-07-25T11:24:57.960Z,2.60
2022-07-25T11:27:32.453Z,2.05
2022-07-25T11:30:14.693Z,2.42
2022-07-25T11:32:46.339Z,3.30
2022-07-25T11:35:17.351Z,3.35
2022-07-25T11:37:48.835Z,3.20
2022-07-25T11:40:19.022Z,3.03
2022-07-25T11:42:48.462Z,3.17
2022-07-25T11:45:19.972Z,2.95
2022-07-25T11:48:02.104Z,3.70
2022-07-25T11:50:30.561Z,2.80
2022-07-25T11:53:01.692Z,3.47
2022-07-25T11:55:36.564Z,6.78
2022-07-25T11:58:04.607Z,2.50
2022-07-25T12:00:34.279Z,3.40
2022-07-25T12:03:23.723Z,3.65
2022-07-25T12:05:51.118Z,4.57
2022-07-25T12:08:20.085Z,4.03
2022-07-25T12:10:49.232Z,3.47
2022-07-25T12:13:29.838Z,4.68
2022-07-25T12:15:57.869Z,2.50
2022-07-25T12:18:25.499Z,3.25
2022-07-25T12:20:53.484Z,2.55
2022-07-25T12:23:22.183Z,4.72
2022-07-25T12:25:49.576Z,3.95
2022-07-25T12:28:16.874Z,2.30
2022-07-25T12:30:45.378Z,4.93
2022-07-25T12:33:13.584Z,3.63
2022-07-25T12:35:41.426Z,2.78
2022-07-25T12:38:09.195Z,3.00
2022-07-25T12:40:36.786Z,4.15
2022-07-25T12:43:07.205Z,3.38
2022-07-25T12:45:34.879Z,3.97
2022-07-25T12:48:02.258Z,2.13
2022-07-25T12:50:29.666Z,3.38
2022-07-25T12:52:56.942Z,4.22
2022-07-25T12:55:24.286Z,3.35
2022-07-25T12:57:51.361Z,2.70
2022-07-25T13:00:20.736Z,4.25
2022-07-25T13:02:48.364Z,2.70
2022-07-25T13:05:15.621Z,3.45
2022-07-25T13:07:42.920Z,2.35
2022-07-25T13:10:17.529Z,3.20
2022-07-25T13:12:45.306Z,2.58
2022-07-25T13:15:15.694Z,2.22
2022-07-25T13:17:43.219Z,2.70
2022-07-25T13:20:12.143Z,2.53
2022-07-25T13:22:40.973Z,3.42
2022-07-25T13:25:08.427Z,2.28
2022-07-25T13:27:35.815Z,3.92
2022-07-25T13:30:03.315Z,2.38
2022-07-25T13:32:31.921Z,2.78
2022-07-25T13:34:59.412Z,2.58
2022-07-25T13:37:26.517Z,3.22
2022-07-25T13:39:54.064Z,1.83
2022-07-25T13:42:21.543Z,2.17
2022-07-25T13:44:48.682Z,3.05
2022-07-25T13:47:15.973Z,2.30
2022-07-25T13:49:45.135Z,2.35
2022-07-25T13:52:12.268Z,2.97
2022-07-25T13:54:39.615Z,2.70
2022-07-25T13:57:06.755Z,1.98
2022-07-25T13:59:34.008Z,3.72
2022-07-25T14:02:01.248Z,3.22
2022-07-25T14:04:28.634Z,2.20
2022-07-25T14:06:57.675Z,2.88
2022-07-25T14:09:24.907Z,3.45
2022-07-25T14:11:52.174Z,2.22
2022-07-25T14:14:19.451Z,2.47
2022-07-25T14:16:46.762Z,4.57
2022-07-25T14:19:14.023Z,2.72
2022-07-25T14:21:41.125Z,3.88
2022-07-25T14:24:08.746Z,2.63
2022-07-25T14:26:36.050Z,3.45
2022-07-25T14:29:03.470Z,2.33
2022-07-25T14:31:32.113Z,2.95
2022-07-25T14:33:59.464Z,2.67
2022-07-25T14:36:26.682Z,2.08
2022-07-25T14:38:53.887Z,2.67
2022-07-25T14:41:21.423Z,4.93
2022-07-25T14:43:48.763Z,3.10
2022-07-25T14:46:16.115Z,2.75
2022-07-25T14:48:45.185Z,2.38
2022-07-25T14:51:12.327Z,3.03
2022-07-25T14:53:39.741Z,3.22
2022-07-25T14:56:07.884Z,5.22
2022-07-25T14:58:35.360Z,6.10
2022-07-25T15:01:02.658Z,2.53
2022-07-25T15:03:29.897Z,2.10
2022-07-25T15:05:57.000Z,2.90
2022-07-25T15:08:24.147Z,3.42
2022-07-25T15:10:51.775Z,4.57
2022-07-25T15:13:34.174Z,3.25
2022-07-25T15:16:02.279Z,3.83
2022-07-25T15:18:29.794Z,3.08
2022-07-25T15:20:56.950Z,4.03
2022-07-25T15:23:30.192Z,3.50
2022-07-25T15:26:01.901Z,3.28
2022-07-25T15:28:30.875Z,3.20
2022-07-25T15:30:58.009Z,3.25
2022-07-25T15:33:25.631Z,2.60
2022-07-25T15:35:53.095Z,4.88
2022-07-25T15:38:20.143Z,4.30
2022-07-25T15:40:47.247Z,4.05
2022-07-25T15:43:17.617Z,3.15
2022-07-25T15:45:46.057Z,3.03
2022-07-25T15:48:16.928Z,2.80
2022-07-25T15:50:46.129Z,2.72
2022-07-25T15:53:15.174Z,3.42
2022-07-25T15:55:42.590Z,6.97
2022-07-25T15:58:10.449Z,4.15
2022-07-25T16:00:38.615Z,4.90
2022-07-25T16:03:06.267Z,4.25
2022-07-25T16:05:34.584Z,3.58
2022-07-25T16:08:01.964Z,3.35
2022-07-25T16:10:32.529Z,4.43
2022-07-25T16:13:00.224Z,2.90
2022-07-25T16:15:27.552Z,2.83
2022-07-25T16:18:01.708Z,2.42
2022-07-25T16:20:29.595Z,3.75
2022-07-25T16:22:59.680Z,4.10
2022-07-25T16:25:27.551Z,3.42
2022-07-25T16:27:54.909Z,2.97
2022-07-25T16:30:22.267Z,3.53
2022-07-25T16:32:49.538Z,3.97
2022-07-25T16:35:17.039Z,4.13
2022-07-25T16:37:44.783Z,5.30
2022-07-25T16:40:12.632Z,3.72
2022-07-25T16:42:39.869Z,2.55
2022-07-25T16:45:07.483Z,2.42
2022-07-25T16:47:34.820Z,3.70
2022-07-25T16:50:02.200Z,3.38
2022-07-25T16:52:29.388Z,4.57
2022-07-25T16:54:56.503Z,3.15
2022-07-25T16:57:24.713Z,7.03
2022-07-25T16:59:53.780Z,2.42
2022-07-25T17:02:26.150Z,6.32
2022-07-25T17:04:56.818Z,2.88
2022-07-25T17:07:24.424Z,3.63
2022-07-25T17:09:51.636Z,4.10
2022-07-25T17:12:19.133Z,4.20
2022-07-25T17:14:46.395Z,3.90
2022-07-25T17:17:13.941Z,4.88
2022-07-25T17:19:41.934Z,2.55
2022-07-25T17:22:09.447Z,3.83
2022-07-25T17:24:36.733Z,2.85
2022-07-25T17:27:04.678Z,3.10
2022-07-25T17:29:32.068Z,9.30
2022-07-25T17:31:59.266Z,6.03
2022-07-25T17:34:27.123Z,3.13
2022-07-25T17:36:55.297Z,5.05
2022-07-25T17:39:22.650Z,3.38
2022-07-25T17:41:53.010Z,3.10
2022-07-25T17:44:20.968Z,4.82
2022-07-25T17:46:50.506Z,5.43
2022-07-25T17:49:18.339Z,8.20
2022-07-25T17:51:45.553Z,3.83
2022-07-25T17:54:13.892Z,3.28
2022-07-25T17:56:41.859Z,2.78
2022-07-25T17:59:09.107Z,4.47
2022-07-25T18:01:36.344Z,4.63
2022-07-25T18:04:04.241Z,3.53
2022-07-25T18:06:31.924Z,2.65
2022-07-25T18:08:59.277Z,5.75
2022-07-25T18:11:28.221Z,5.18
2022-07-25T18:13:55.380Z,2.72
2022-07-25T18:16:23.095Z,3.47
2022-07-25T18:18:50.578Z,2.83
2022-07-25T18:21:17.740Z,4.40
2022-07-25T18:23:45.101Z,2.53
2022-07-25T18:26:12.459Z,1.80
2022-07-25T18:28:39.653Z,2.13
2022-07-25T18:31:07.013Z,2.00
2022-07-25T18:33:34.358Z,1.90
2022-07-25T18:36:05.585Z,2.28
2022-07-25T18:38:34.789Z,2.78
2022-07-25T18:41:27.503Z,2.83
2022-07-25T18:43:49.574Z,2.85
2022-07-25T18:46:17.112Z,2.40
2022-07-25T18:48:44.933Z,2.72
2022-07-25T18:51:12.231Z,2.40
2022-07-25T18:53:39.576Z,3.05
2022-07-25T18:56:07.184Z,4.32
2022-07-25T18:58:34.991Z,3.38
2022-07-25T19:01:05.415Z,2.88
2022-07-25T19:03:34.976Z,2.50
2022-07-25T19:06:03.556Z,2.83
2022-07-25T19:08:31.748Z,3.40
2022-07-25T19:10:59.212Z,2.92
2022-07-25T19:13:48.325Z,4.50
2022-07-25T19:16:15.046Z,3.80
2022-07-25T19:18:42.971Z,2.92
2022-07-25T19:21:15.969Z,4.32
2022-07-25T19:23:49.732Z,4.15
2022-07-25T19:26:18.801Z,2.92
2022-07-25T19:28:46.107Z,3.35
2022-07-25T19:31:14.951Z,2.40
2022-07-25T19:33:42.496Z,2.67
2022-07-25T19:36:10.123Z,2.60
2022-07-25T19:38:37.189Z,2.70
2022-07-25T19:41:04.456Z,2.67
2022-07-25T19:43:31.661Z,3.85
2022-07-25T19:45:58.903Z,2.00
2022-07-25T19:48:26.371Z,3.05
2022-07-25T19:50:53.721Z,2.70
2022-07-25T19:53:24.264Z,4.43
2022-07-25T19:55:55.748Z,2.50
2022-07-25T19:58:22.821Z,2.22
2022-07-25T20:00:50.188Z,2.08
2022-07-25T20:03:23.562Z,2.17
2022-07-25T20:05:51.340Z,2.70
2022-07-25T20:08:19.038Z,1.95
2022-07-25T20:10:47.479Z,2.08
2022-07-25T20:13:15.532Z,1.83
2022-07-25T20:15:42.875Z,2.08
2022-07-25T20:18:09.936Z,1.73
2022-07-25T20:20:37.129Z,1.90
2022-07-25T20:23:04.605Z,2.15
2022-07-25T20:25:31.814Z,2.63
2022-07-25T20:27:58.941Z,2.70
2022-07-25T20:30:28.285Z,2.30
2022-07-25T20:32:58.656Z,1.95
2022-07-25T20:35:27.177Z,2.55
2022-07-25T20:38:01.700Z,2.53
2022-07-25T20:40:29.414Z,2.50
2022-07-25T20:42:56.528Z,3.00
2022-07-25T20:45:23.932Z,2.58
2022-07-25T20:47:51.002Z,2.00
2022-07-25T20:50:18.281Z,2.78
2022-07-25T20:52:45.762Z,2.45
2022-07-25T20:55:12.909Z,2.22
2022-07-25T20:57:40.469Z,3.53
2022-07-25T21:00:08.487Z,2.47
2022-07-25T21:02:35.680Z,3.33
2022-07-25T21:05:02.882Z,2.55
2022-07-25T21:07:30.204Z,4.15
2022-07-25T21:09:57.330Z,2.40
2022-07-25T21:12:24.409Z,2.10
2022-07-25T21:14:51.983Z,2.35
2022-07-25T21:17:19.079Z,2.25
2022-07-25T21:19:46.165Z,2.65
2022-07-25T21:22:16.186Z,2.85
2022-07-25T21:24:45.694Z,2.65
2022-07-25T21:27:12.744Z,2.83
2022-07-25T21:29:40.252Z,3.30
2022-07-25T21:32:07.731Z,2.33
2022-07-25T21:34:34.865Z,2.53
2022-07-25T21:37:02.370Z,6.00
2022-07-25T21:39:29.506Z,3.05
2022-07-25T21:41:56.587Z,1.85
2022-07-25T21:44:24.354Z,2.10
2022-07-25T21:46:51.989Z,1.80
2022-07-25T21:49:41.819Z,2.60
2022-07-25T21:52:13.650Z,1.60
2022-07-25T21:54:45.179Z,2.80
2022-07-25T21:57:13.448Z,2.92
2022-07-25T21:59:44.982Z,2.38
2022-07-25T22:02:12.423Z,2.65
2022-07-25T22:04:39.676Z,2.85
2022-07-25T22:07:06.815Z,2.72
2022-07-25T22:09:33.966Z,3.25
2022-07-25T22:12:01.202Z,2.67
2022-07-25T22:14:28.244Z,2.67
2022-07-25T22:16:55.743Z,2.90
2022-07-25T22:19:23.064Z,3.75
2022-07-25T22:21:50.647Z,2.53
2022-07-25T22:24:17.839Z,4.53
2022-07-25T22:26:45.848Z,2.30
2022-07-25T22:29:13.037Z,3.30
2022-07-25T22:31:40.872Z,3.65
2022-07-25T22:34:08.145Z,3.53
2022-07-25T22:36:35.188Z,2.92
2022-07-25T22:39:02.379Z,4.13
2022-07-25T22:41:29.590Z,3.53
2022-07-25T22:43:59.587Z,2.83
2022-07-25T22:46:28.626Z,3.83
2022-07-25T22:48:56.051Z,3.00
2022-07-25T22:51:23.232Z,2.47
2022-07-25T22:53:50.657Z,3.05
2022-07-25T22:56:17.958Z,2.65
2022-07-25T22:58:49.291Z,2.22
2022-07-25T23:01:20.125Z,2.15
2022-07-25T23:03:50.098Z,4.43
2022-07-25T23:08:48.480Z,4.22
2022-07-25T23:11:15.712Z,2.38
2022-07-25T23:13:42.846Z,6.18
2022-07-25T23:16:10.697Z,3.50
2022-07-25T23:18:38.560Z,2.97
2022-07-25T23:21:05.998Z,2.03
2022-07-25T23:23:33.302Z,5.03
2022-07-25T23:26:00.431Z,3.97
2022-07-25T23:28:27.487Z,3.88
2022-07-25T23:30:55.405Z,5.18
2022-07-25T23:33:25.109Z,3.40
2022-07-25T23:35:53.897Z,3.72
2022-07-25T23:38:21.723Z,3.78
2022-07-25T23:40:49.509Z,4.38
2022-07-25T23:43:27.763Z,2.65
2022-07-25T23:46:04.111Z,3.63
2022-07-25T23:48:31.187Z,2.85
2022-07-25T23:50:58.463Z,3.47
2022-07-25T23:53:25.968Z,3.88
2022-07-25T23:55:53.071Z,5.68
2022-07-25T23:58:20.107Z,3.50
